sensor_id;sensor_type;location;lat;lon;timestamp;temperature;humidity
23609;DHT22;11982;50.810;4.442;2022-10-16T00:01:30;13.10;99.90
23609;DHT22;11982;50.810;4.442;2022-10-16T00:03:57;13.10;99.90
23609;DHT22;11982;50.810;4.442;2022-10-16T00:06:24;13.10;99.90
23609;DHT22;11982;50.810;4.442;2022-10-16T00:08:50;13.10;99.90
23609;DHT22;11982;50.810;4.442;2022-10-16T00:11:22;13.10;99.90
23609;DHT22;11982;50.810;4.442;2022-10-16T00:13:49;13.00;99.90
23609;DHT22;11982;50.810;4.442;2022-10-16T00:16:16;13.00;99.90
23609;DHT22;11982;50.810;4.442;2022-10-16T00:18:42;13.10;99.90
23609;DHT22;11982;50.810;4.442;2022-10-16T00:21:13;13.10;99.90
23609;DHT22;11982;50.810;4.442;2022-10-16T00:23:40;13.10;99.90
23609;DHT22;11982;50.810;4.442;2022-10-16T00:26:07;13.10;99.90
23609;DHT22;11982;50.810;4.442;2022-10-16T00:28:34;13.10;99.90
23609;DHT22;11982;50.810;4.442;2022-10-16T00:31:03;13.10;99.90
23609;DHT22;11982;50.810;4.442;2022-10-16T00:33:29;13.10;99.90
23609;DHT22;11982;50.810;4.442;2022-10-16T00:35:58;13.20;99.90
23609;DHT22;11982;50.810;4.442;2022-10-16T00:38:24;13.10;99.90
23609;DHT22;11982;50.810;4.442;2022-10-16T00:40:49;13.10;99.90
23609;DHT22;11982;50.810;4.442;2022-10-16T00:46:28;13.10;99.90
23609;DHT22;11982;50.810;4.442;2022-10-16T00:51:42;13.10;99.90
23609;DHT22;11982;50.810;4.442;2022-10-16T00:54:14;13.10;99.90
23609;DHT22;11982;50.810;4.442;2022-10-16T00:56:41;13.00;99.90
23609;DHT22;11982;50.810;4.442;2022-10-16T01:01:43;13.00;99.90
23609;DHT22;11982;50.810;4.442;2022-10-16T01:04:08;13.00;99.90
23609;DHT22;11982;50.810;4.442;2022-10-16T01:06:56;13.00;99.90
23609;DHT22;11982;50.810;4.442;2022-10-16T01:09:23;13.00;99.90
23609;DHT22;11982;50.810;4.442;2022-10-16T01:20:35;12.90;99.90
23609;DHT22;11982;50.810;4.442;2022-10-16T01:26:20;13.00;99.90
23609;DHT22;11982;50.810;4.442;2022-10-16T01:28:56;12.90;99.90
23609;DHT22;11982;50.810;4.442;2022-10-16T01:31:26;13.00;99.90
23609;DHT22;11982;50.810;4.442;2022-10-16T01:34:00;13.00;99.90
23609;DHT22;11982;50.810;4.442;2022-10-16T01:36:37;13.00;99.90
23609;DHT22;11982;50.810;4.442;2022-10-16T01:39:05;12.90;99.90
23609;DHT22;11982;50.810;4.442;2022-10-16T01:41:41;12.90;99.90
23609;DHT22;11982;50.810;4.442;2022-10-16T01:44:11;12.90;99.90
23609;DHT22;11982;50.810;4.442;2022-10-16T01:46:41;13.00;99.90
23609;DHT22;11982;50.810;4.442;2022-10-16T01:49:08;13.00;99.90
23609;DHT22;11982;50.810;4.442;2022-10-16T01:51:36;12.90;99.90
23609;DHT22;11982;50.810;4.442;2022-10-16T01:54:05;12.90;99.90
23609;DHT22;11982;50.810;4.442;2022-10-16T01:56:34;12.80;99.90
23609;DHT22;11982;50.810;4.442;2022-10-16T01:59:05;12.80;99.90
23609;DHT22;11982;50.810;4.442;2022-10-16T02:01:33;12.80;99.90
23609;DHT22;11982;50.810;4.442;2022-10-16T02:04:09;12.80;99.90
23609;DHT22;11982;50.810;4.442;2022-10-16T02:06:35;12.80;99.90
23609;DHT22;11982;50.810;4.442;2022-10-16T02:09:01;12.80;99.90
23609;DHT22;11982;50.810;4.442;2022-10-16T02:11:27;12.80;99.90
23609;DHT22;11982;50.810;4.442;2022-10-16T02:13:59;12.90;99.90
23609;DHT22;11982;50.810;4.442;2022-10-16T02:19:02;12.90;99.90
23609;DHT22;11982;50.810;4.442;2022-10-16T02:21:56;12.80;99.90
23609;DHT22;11982;50.810;4.442;2022-10-16T02:29:46;12.90;99.90
23609;DHT22;11982;50.810;4.442;2022-10-16T02:32:21;12.80;99.90
23609;DHT22;11982;50.810;4.442;2022-10-16T02:34:49;12.90;99.90
23609;DHT22;11982;50.810;4.442;2022-10-16T02:37:17;12.90;99.90
23609;DHT22;11982;50.810;4.442;2022-10-16T02:39:43;12.90;99.90
23609;DHT22;11982;50.810;4.442;2022-10-16T02:42:13;12.90;99.90
23609;DHT22;11982;50.810;4.442;2022-10-16T02:44:39;12.90;99.90
23609;DHT22;11982;50.810;4.442;2022-10-16T02:47:04;12.90;99.90
23609;DHT22;11982;50.810;4.442;2022-10-16T02:49:30;12.80;99.90
23609;DHT22;11982;50.810;4.442;2022-10-16T02:51:56;12.90;99.90
23609;DHT22;11982;50.810;4.442;2022-10-16T02:54:21;12.90;99.90
23609;DHT22;11982;50.810;4.442;2022-10-16T02:56:47;12.80;99.90
23609;DHT22;11982;50.810;4.442;2022-10-16T02:59:12;12.90;99.90
23609;DHT22;11982;50.810;4.442;2022-10-16T03:01:38;12.90;99.90
23609;DHT22;11982;50.810;4.442;2022-10-16T03:04:04;12.80;99.90
23609;DHT22;11982;50.810;4.442;2022-10-16T03:06:29;12.80;99.90
23609;DHT22;11982;50.810;4.442;2022-10-16T03:08:55;12.90;99.90
23609;DHT22;11982;50.810;4.442;2022-10-16T03:11:20;12.90;99.90
23609;DHT22;11982;50.810;4.442;2022-10-16T03:13:46;12.90;99.90
23609;DHT22;11982;50.810;4.442;2022-10-16T03:16:11;12.90;99.90
23609;DHT22;11982;50.810;4.442;2022-10-16T03:18:37;12.90;99.90
23609;DHT22;11982;50.810;4.442;2022-10-16T03:21:02;12.90;99.90
23609;DHT22;11982;50.810;4.442;2022-10-16T03:23:28;12.90;99.90
23609;DHT22;11982;50.810;4.442;2022-10-16T03:25:54;12.90;99.90
23609;DHT22;11982;50.810;4.442;2022-10-16T03:28:19;12.90;99.90
23609;DHT22;11982;50.810;4.442;2022-10-16T03:30:45;12.90;99.90
23609;DHT22;11982;50.810;4.442;2022-10-16T03:33:11;12.90;99.90
23609;DHT22;11982;50.810;4.442;2022-10-16T03:35:36;12.90;99.90
23609;DHT22;11982;50.810;4.442;2022-10-16T03:38:02;12.90;99.90
23609;DHT22;11982;50.810;4.442;2022-10-16T03:40:28;12.80;99.90
23609;DHT22;11982;50.810;4.442;2022-10-16T03:42:53;12.80;99.90
23609;DHT22;11982;50.810;4.442;2022-10-16T03:45:23;12.90;99.90
23609;DHT22;11982;50.810;4.442;2022-10-16T03:47:48;12.90;99.90
23609;DHT22;11982;50.810;4.442;2022-10-16T03:50:14;12.90;99.90
23609;DHT22;11982;50.810;4.442;2022-10-16T03:52:40;12.90;99.90
23609;DHT22;11982;50.810;4.442;2022-10-16T03:55:06;12.90;99.90
23609;DHT22;11982;50.810;4.442;2022-10-16T03:57:31;12.90;99.90
23609;DHT22;11982;50.810;4.442;2022-10-16T03:59:57;12.90;99.90
23609;DHT22;11982;50.810;4.442;2022-10-16T04:02:22;12.90;99.90
23609;DHT22;11982;50.810;4.442;2022-10-16T04:04:48;12.90;99.90
23609;DHT22;11982;50.810;4.442;2022-10-16T04:07:14;12.90;99.90
23609;DHT22;11982;50.810;4.442;2022-10-16T04:09:39;12.90;99.90
23609;DHT22;11982;50.810;4.442;2022-10-16T04:12:05;12.80;99.90
23609;DHT22;11982;50.810;4.442;2022-10-16T04:14:31;12.80;99.90
23609;DHT22;11982;50.810;4.442;2022-10-16T04:16:56;12.80;99.90
23609;DHT22;11982;50.810;4.442;2022-10-16T04:19:22;12.80;99.90
23609;DHT22;11982;50.810;4.442;2022-10-16T04:21:47;12.80;99.90
23609;DHT22;11982;50.810;4.442;2022-10-16T04:24:13;12.80;99.90
23609;DHT22;11982;50.810;4.442;2022-10-16T04:26:38;12.80;99.90
23609;DHT22;11982;50.810;4.442;2022-10-16T04:29:04;12.80;99.90
23609;DHT22;11982;50.810;4.442;2022-10-16T04:31:31;12.80;99.90
23609;DHT22;11982;50.810;4.442;2022-10-16T04:33:56;12.80;99.90
23609;DHT22;11982;50.810;4.442;2022-10-16T04:36:22;12.70;99.90
23609;DHT22;11982;50.810;4.442;2022-10-16T04:38:48;12.80;99.90
23609;DHT22;11982;50.810;4.442;2022-10-16T04:41:13;12.70;99.90
23609;DHT22;11982;50.810;4.442;2022-10-16T04:43:39;12.70;99.90
23609;DHT22;11982;50.810;4.442;2022-10-16T04:46:04;12.60;99.90
23609;DHT22;11982;50.810;4.442;2022-10-16T04:48:31;12.70;99.90
23609;DHT22;11982;50.810;4.442;2022-10-16T04:50:56;12.70;99.90
23609;DHT22;11982;50.810;4.442;2022-10-16T04:53:22;12.70;99.90
23609;DHT22;11982;50.810;4.442;2022-10-16T04:55:48;12.60;99.90
23609;DHT22;11982;50.810;4.442;2022-10-16T04:58:14;12.60;99.90
23609;DHT22;11982;50.810;4.442;2022-10-16T05:00:39;12.60;99.90
23609;DHT22;11982;50.810;4.442;2022-10-16T05:03:05;12.60;99.90
23609;DHT22;11982;50.810;4.442;2022-10-16T05:05:34;12.60;99.90
23609;DHT22;11982;50.810;4.442;2022-10-16T05:08:00;12.60;99.90
23609;DHT22;11982;50.810;4.442;2022-10-16T05:10:25;12.60;99.90
23609;DHT22;11982;50.810;4.442;2022-10-16T05:12:51;12.60;99.90
23609;DHT22;11982;50.810;4.442;2022-10-16T05:15:17;12.60;99.90
23609;DHT22;11982;50.810;4.442;2022-10-16T05:17:42;12.60;99.90
23609;DHT22;11982;50.810;4.442;2022-10-16T05:20:08;12.60;99.90
23609;DHT22;11982;50.810;4.442;2022-10-16T05:22:34;12.60;99.90
23609;DHT22;11982;50.810;4.442;2022-10-16T05:24:59;12.60;99.90
23609;DHT22;11982;50.810;4.442;2022-10-16T05:27:25;12.60;99.90
23609;DHT22;11982;50.810;4.442;2022-10-16T05:29:51;12.50;99.90
23609;DHT22;11982;50.810;4.442;2022-10-16T05:32:17;12.50;99.90
23609;DHT22;11982;50.810;4.442;2022-10-16T05:34:43;12.50;99.90
23609;DHT22;11982;50.810;4.442;2022-10-16T05:37:09;12.50;99.90
23609;DHT22;11982;50.810;4.442;2022-10-16T05:39:34;12.50;99.90
23609;DHT22;11982;50.810;4.442;2022-10-16T05:42:02;12.50;99.90
23609;DHT22;11982;50.810;4.442;2022-10-16T05:44:27;12.40;99.90
23609;DHT22;11982;50.810;4.442;2022-10-16T05:46:53;12.40;99.90
23609;DHT22;11982;50.810;4.442;2022-10-16T05:49:18;12.40;99.90
23609;DHT22;11982;50.810;4.442;2022-10-16T05:51:44;12.40;99.90
23609;DHT22;11982;50.810;4.442;2022-10-16T05:54:10;12.40;99.90
23609;DHT22;11982;50.810;4.442;2022-10-16T05:56:35;12.40;99.90
23609;DHT22;11982;50.810;4.442;2022-10-16T05:59:03;12.30;99.90
23609;DHT22;11982;50.810;4.442;2022-10-16T06:01:29;12.40;99.90
23609;DHT22;11982;50.810;4.442;2022-10-16T06:03:56;12.30;99.90
23609;DHT22;11982;50.810;4.442;2022-10-16T06:06:24;12.30;99.90
23609;DHT22;11982;50.810;4.442;2022-10-16T06:08:52;12.20;99.90
23609;DHT22;11982;50.810;4.442;2022-10-16T06:11:20;12.30;99.90
23609;DHT22;11982;50.810;4.442;2022-10-16T06:13:49;12.30;99.90
23609;DHT22;11982;50.810;4.442;2022-10-16T06:16:15;12.40;99.90
23609;DHT22;11982;50.810;4.442;2022-10-16T06:18:41;12.40;99.90
23609;DHT22;11982;50.810;4.442;2022-10-16T06:21:18;12.30;99.90
23609;DHT22;11982;50.810;4.442;2022-10-16T06:23:44;12.40;99.90
23609;DHT22;11982;50.810;4.442;2022-10-16T06:26:13;12.30;99.90
23609;DHT22;11982;50.810;4.442;2022-10-16T06:28:39;12.30;99.90
23609;DHT22;11982;50.810;4.442;2022-10-16T06:31:06;12.30;99.90
23609;DHT22;11982;50.810;4.442;2022-10-16T06:33:32;12.30;99.90
23609;DHT22;11982;50.810;4.442;2022-10-16T06:38:31;12.40;99.90
23609;DHT22;11982;50.810;4.442;2022-10-16T06:40:57;12.40;99.90
23609;DHT22;11982;50.810;4.442;2022-10-16T06:43:23;12.40;99.90
23609;DHT22;11982;50.810;4.442;2022-10-16T06:45:53;12.50;99.90
23609;DHT22;11982;50.810;4.442;2022-10-16T06:48:19;12.60;99.90
23609;DHT22;11982;50.810;4.442;2022-10-16T06:51:01;12.60;99.90
23609;DHT22;11982;50.810;4.442;2022-10-16T06:53:30;12.70;99.90
23609;DHT22;11982;50.810;4.442;2022-10-16T06:55:56;12.80;99.90
23609;DHT22;11982;50.810;4.442;2022-10-16T06:58:22;12.90;99.90
23609;DHT22;11982;50.810;4.442;2022-10-16T07:00:48;13.00;99.90
23609;DHT22;11982;50.810;4.442;2022-10-16T07:03:14;13.00;99.90
23609;DHT22;11982;50.810;4.442;2022-10-16T07:05:41;13.00;99.90
23609;DHT22;11982;50.810;4.442;2022-10-16T07:08:06;13.10;99.90
23609;DHT22;11982;50.810;4.442;2022-10-16T07:10:33;13.10;99.90
23609;DHT22;11982;50.810;4.442;2022-10-16T07:12:58;13.10;99.90
23609;DHT22;11982;50.810;4.442;2022-10-16T07:15:24;13.20;99.90
23609;DHT22;11982;50.810;4.442;2022-10-16T07:17:50;13.20;99.90
23609;DHT22;11982;50.810;4.442;2022-10-16T07:20:16;13.30;99.90
23609;DHT22;11982;50.810;4.442;2022-10-16T07:22:42;13.30;99.90
23609;DHT22;11982;50.810;4.442;2022-10-16T07:25:07;13.30;99.90
23609;DHT22;11982;50.810;4.442;2022-10-16T07:27:33;13.30;99.90
23609;DHT22;11982;50.810;4.442;2022-10-16T07:29:59;13.30;99.90
23609;DHT22;11982;50.810;4.442;2022-10-16T07:32:25;13.30;99.90
23609;DHT22;11982;50.810;4.442;2022-10-16T07:34:51;13.40;99.90
23609;DHT22;11982;50.810;4.442;2022-10-16T07:37:17;13.40;99.90
23609;DHT22;11982;50.810;4.442;2022-10-16T07:39:42;13.50;99.90
23609;DHT22;11982;50.810;4.442;2022-10-16T07:42:08;13.50;99.90
23609;DHT22;11982;50.810;4.442;2022-10-16T07:44:34;13.60;99.90
23609;DHT22;11982;50.810;4.442;2022-10-16T07:46:59;13.60;99.90
23609;DHT22;11982;50.810;4.442;2022-10-16T07:49:25;13.70;99.90
23609;DHT22;11982;50.810;4.442;2022-10-16T07:51:51;13.70;99.90
23609;DHT22;11982;50.810;4.442;2022-10-16T07:54:16;13.80;99.90
23609;DHT22;11982;50.810;4.442;2022-10-16T07:56:42;13.90;99.90
23609;DHT22;11982;50.810;4.442;2022-10-16T07:59:08;13.90;99.90
23609;DHT22;11982;50.810;4.442;2022-10-16T08:01:33;14.00;99.90
23609;DHT22;11982;50.810;4.442;2022-10-16T08:03:59;14.00;99.90
23609;DHT22;11982;50.810;4.442;2022-10-16T08:06:25;14.10;99.90
23609;DHT22;11982;50.810;4.442;2022-10-16T08:08:50;14.20;99.90
23609;DHT22;11982;50.810;4.442;2022-10-16T08:11:16;14.30;99.90
23609;DHT22;11982;50.810;4.442;2022-10-16T08:13:42;14.30;99.90
23609;DHT22;11982;50.810;4.442;2022-10-16T08:16:08;14.30;99.90
23609;DHT22;11982;50.810;4.442;2022-10-16T08:18:36;14.40;99.90
23609;DHT22;11982;50.810;4.442;2022-10-16T08:21:02;14.50;99.90
23609;DHT22;11982;50.810;4.442;2022-10-16T08:23:28;14.50;99.90
23609;DHT22;11982;50.810;4.442;2022-10-16T08:25:54;14.60;99.90
23609;DHT22;11982;50.810;4.442;2022-10-16T08:28:21;14.60;99.90
23609;DHT22;11982;50.810;4.442;2022-10-16T08:30:47;14.70;99.90
23609;DHT22;11982;50.810;4.442;2022-10-16T08:33:13;14.70;99.90
23609;DHT22;11982;50.810;4.442;2022-10-16T08:35:39;14.70;99.90
23609;DHT22;11982;50.810;4.442;2022-10-16T08:38:05;14.90;99.90
23609;DHT22;11982;50.810;4.442;2022-10-16T08:40:32;14.90;99.90
23609;DHT22;11982;50.810;4.442;2022-10-16T08:45:43;15.00;99.90
23609;DHT22;11982;50.810;4.442;2022-10-16T08:50:50;15.00;99.90
23609;DHT22;11982;50.810;4.442;2022-10-16T08:53:47;15.10;99.90
23609;DHT22;11982;50.810;4.442;2022-10-16T08:56:14;15.10;99.90
23609;DHT22;11982;50.810;4.442;2022-10-16T08:58:39;15.00;99.90
23609;DHT22;11982;50.810;4.442;2022-10-16T09:01:12;15.10;99.90
23609;DHT22;11982;50.810;4.442;2022-10-16T09:11:54;15.40;99.90
23609;DHT22;11982;50.810;4.442;2022-10-16T09:17:24;15.60;99.90
23609;DHT22;11982;50.810;4.442;2022-10-16T09:22:35;15.70;99.90
23609;DHT22;11982;50.810;4.442;2022-10-16T09:25:11;15.70;99.90
23609;DHT22;11982;50.810;4.442;2022-10-16T09:27:37;15.70;99.90
23609;DHT22;11982;50.810;4.442;2022-10-16T09:30:11;15.70;99.90
23609;DHT22;11982;50.810;4.442;2022-10-16T09:32:37;15.80;99.90
23609;DHT22;11982;50.810;4.442;2022-10-16T09:38:01;15.90;99.90
23609;DHT22;11982;50.810;4.442;2022-10-16T09:43:06;16.10;99.90
23609;DHT22;11982;50.810;4.442;2022-10-16T09:45:37;16.10;99.90
23609;DHT22;11982;50.810;4.442;2022-10-16T09:48:11;16.10;99.90
23609;DHT22;11982;50.810;4.442;2022-10-16T09:50:37;16.10;99.90
23609;DHT22;11982;50.810;4.442;2022-10-16T09:53:14;16.10;99.90
23609;DHT22;11982;50.810;4.442;2022-10-16T09:55:50;16.10;99.90
23609;DHT22;11982;50.810;4.442;2022-10-16T09:58:16;16.30;99.90
23609;DHT22;11982;50.810;4.442;2022-10-16T10:00:49;16.40;99.90
23609;DHT22;11982;50.810;4.442;2022-10-16T10:03:33;16.50;99.90
23609;DHT22;11982;50.810;4.442;2022-10-16T10:06:05;16.60;99.90
23609;DHT22;11982;50.810;4.442;2022-10-16T10:08:31;16.70;99.90
23609;DHT22;11982;50.810;4.442;2022-10-16T10:10:57;16.70;99.90
23609;DHT22;11982;50.810;4.442;2022-10-16T10:13:24;16.70;99.90
23609;DHT22;11982;50.810;4.442;2022-10-16T10:15:51;16.80;99.90
23609;DHT22;11982;50.810;4.442;2022-10-16T10:18:21;16.80;99.90
23609;DHT22;11982;50.810;4.442;2022-10-16T10:21:02;16.70;99.90
23609;DHT22;11982;50.810;4.442;2022-10-16T10:23:29;16.80;99.90
23609;DHT22;11982;50.810;4.442;2022-10-16T10:26:15;16.90;99.90
23609;DHT22;11982;50.810;4.442;2022-10-16T10:29:08;16.90;99.90
23609;DHT22;11982;50.810;4.442;2022-10-16T10:31:47;16.80;99.90
23609;DHT22;11982;50.810;4.442;2022-10-16T10:40:30;16.90;99.90
23609;DHT22;11982;50.810;4.442;2022-10-16T10:46:04;17.30;99.90
23609;DHT22;11982;50.810;4.442;2022-10-16T10:51:20;17.70;99.90
23609;DHT22;11982;50.810;4.442;2022-10-16T10:56:50;17.60;99.90
23609;DHT22;11982;50.810;4.442;2022-10-16T10:59:35;17.70;99.90
23609;DHT22;11982;50.810;4.442;2022-10-16T11:02:13;17.80;99.90
23609;DHT22;11982;50.810;4.442;2022-10-16T11:07:28;17.80;99.90
23609;DHT22;11982;50.810;4.442;2022-10-16T11:10:07;17.70;99.90
23609;DHT22;11982;50.810;4.442;2022-10-16T11:12:42;17.60;99.90
23609;DHT22;11982;50.810;4.442;2022-10-16T11:15:31;17.40;99.90
23609;DHT22;11982;50.810;4.442;2022-10-16T11:17:59;17.50;99.90
23609;DHT22;11982;50.810;4.442;2022-10-16T11:20:32;17.70;99.90
23609;DHT22;11982;50.810;4.442;2022-10-16T11:23:28;18.00;99.90
23609;DHT22;11982;50.810;4.442;2022-10-16T11:25:59;18.20;99.90
23609;DHT22;11982;50.810;4.442;2022-10-16T11:28:34;18.20;99.90
23609;DHT22;11982;50.810;4.442;2022-10-16T11:31:10;18.10;99.90
23609;DHT22;11982;50.810;4.442;2022-10-16T11:33:46;18.10;99.90
23609;DHT22;11982;50.810;4.442;2022-10-16T11:36:18;18.10;99.90
23609;DHT22;11982;50.810;4.442;2022-10-16T11:41:37;18.20;99.90
23609;DHT22;11982;50.810;4.442;2022-10-16T11:49:32;17.90;99.90
23609;DHT22;11982;50.810;4.442;2022-10-16T11:52:21;17.80;99.90
23609;DHT22;11982;50.810;4.442;2022-10-16T11:55:21;17.60;99.90
23609;DHT22;11982;50.810;4.442;2022-10-16T11:57:57;17.50;99.90
23609;DHT22;11982;50.810;4.442;2022-10-16T12:00:30;17.70;99.90
23609;DHT22;11982;50.810;4.442;2022-10-16T12:06:14;18.60;99.90
23609;DHT22;11982;50.810;4.442;2022-10-16T12:08:44;19.20;99.90
23609;DHT22;11982;50.810;4.442;2022-10-16T12:14:07;20.00;99.90
23609;DHT22;11982;50.810;4.442;2022-10-16T12:16:33;20.00;99.90
23609;DHT22;11982;50.810;4.442;2022-10-16T12:19:14;20.30;99.90
23609;DHT22;11982;50.810;4.442;2022-10-16T12:21:40;20.50;99.90
23609;DHT22;11982;50.810;4.442;2022-10-16T12:24:06;20.60;99.90
23609;DHT22;11982;50.810;4.442;2022-10-16T12:26:45;20.50;99.90
23609;DHT22;11982;50.810;4.442;2022-10-16T12:31:48;19.50;99.90
23609;DHT22;11982;50.810;4.442;2022-10-16T12:34:42;19.40;99.90
23609;DHT22;11982;50.810;4.442;2022-10-16T12:39:38;19.10;99.90
23609;DHT22;11982;50.810;4.442;2022-10-16T12:42:19;19.10;99.90
23609;DHT22;11982;50.810;4.442;2022-10-16T12:44:45;19.40;99.90
23609;DHT22;11982;50.810;4.442;2022-10-16T12:47:34;19.70;99.90
23609;DHT22;11982;50.810;4.442;2022-10-16T12:50:00;20.40;99.90
23609;DHT22;11982;50.810;4.442;2022-10-16T12:52:38;21.10;99.90
23609;DHT22;11982;50.810;4.442;2022-10-16T12:55:05;21.50;99.90
23609;DHT22;11982;50.810;4.442;2022-10-16T13:00:36;20.70;99.90
23609;DHT22;11982;50.810;4.442;2022-10-16T13:14:36;20.60;99.90
23609;DHT22;11982;50.810;4.442;2022-10-16T13:28:07;20.60;99.90
23609;DHT22;11982;50.810;4.442;2022-10-16T13:30:42;21.00;99.90
23609;DHT22;11982;50.810;4.442;2022-10-16T13:33:17;21.20;99.90
23609;DHT22;11982;50.810;4.442;2022-10-16T13:35:52;21.60;99.90
23609;DHT22;11982;50.810;4.442;2022-10-16T13:38:21;21.60;99.90
23609;DHT22;11982;50.810;4.442;2022-10-16T13:43:21;21.80;99.90
23609;DHT22;11982;50.810;4.442;2022-10-16T13:45:59;21.90;99.90
23609;DHT22;11982;50.810;4.442;2022-10-16T13:48:25;21.70;99.90
23609;DHT22;11982;50.810;4.442;2022-10-16T13:51:10;21.70;99.90
23609;DHT22;11982;50.810;4.442;2022-10-16T13:53:37;21.50;99.90
23609;DHT22;11982;50.810;4.442;2022-10-16T13:56:07;21.30;99.90
23609;DHT22;11982;50.810;4.442;2022-10-16T13:58:35;21.20;99.90
23609;DHT22;11982;50.810;4.442;2022-10-16T14:01:02;21.30;99.90
23609;DHT22;11982;50.810;4.442;2022-10-16T14:03:30;21.30;99.90
23609;DHT22;11982;50.810;4.442;2022-10-16T14:06:01;21.30;99.90
23609;DHT22;11982;50.810;4.442;2022-10-16T14:08:29;21.50;99.90
23609;DHT22;11982;50.810;4.442;2022-10-16T14:10:57;21.80;99.90
23609;DHT22;11982;50.810;4.442;2022-10-16T14:13:34;21.90;99.90
23609;DHT22;11982;50.810;4.442;2022-10-16T14:16:06;21.80;99.90
23609;DHT22;11982;50.810;4.442;2022-10-16T14:18:33;21.90;99.90
23609;DHT22;11982;50.810;4.442;2022-10-16T14:21:07;21.80;99.90
23609;DHT22;11982;50.810;4.442;2022-10-16T14:23:37;21.70;99.90
23609;DHT22;11982;50.810;4.442;2022-10-16T14:28:39;21.90;99.90
23609;DHT22;11982;50.810;4.442;2022-10-16T14:31:31;21.60;99.90
23609;DHT22;11982;50.810;4.442;2022-10-16T14:33:57;21.60;99.90
23609;DHT22;11982;50.810;4.442;2022-10-16T14:36:24;21.90;99.90
23609;DHT22;11982;50.810;4.442;2022-10-16T14:39:05;21.90;99.90
23609;DHT22;11982;50.810;4.442;2022-10-16T14:41:33;21.80;99.90
23609;DHT22;11982;50.810;4.442;2022-10-16T14:44:06;21.90;99.90
23609;DHT22;11982;50.810;4.442;2022-10-16T14:46:39;22.00;99.90
23609;DHT22;11982;50.810;4.442;2022-10-16T14:51:34;21.60;99.90
23609;DHT22;11982;50.810;4.442;2022-10-16T14:54:00;21.30;99.90
23609;DHT22;11982;50.810;4.442;2022-10-16T14:56:31;20.70;99.90
23609;DHT22;11982;50.810;4.442;2022-10-16T14:58:59;21.00;99.90
23609;DHT22;11982;50.810;4.442;2022-10-16T15:01:26;21.20;99.90
23609;DHT22;11982;50.810;4.442;2022-10-16T15:03:51;21.40;99.90
23609;DHT22;11982;50.810;4.442;2022-10-16T15:06:19;21.60;99.90
23609;DHT22;11982;50.810;4.442;2022-10-16T15:08:45;21.50;99.90
23609;DHT22;11982;50.810;4.442;2022-10-16T15:11:14;21.50;99.90
23609;DHT22;11982;50.810;4.442;2022-10-16T15:13:40;21.50;99.90
23609;DHT22;11982;50.810;4.442;2022-10-16T15:16:12;21.20;99.90
23609;DHT22;11982;50.810;4.442;2022-10-16T15:18:38;21.40;99.90
23609;DHT22;11982;50.810;4.442;2022-10-16T15:21:04;21.50;99.90
23609;DHT22;11982;50.810;4.442;2022-10-16T15:23:30;21.30;99.90
23609;DHT22;11982;50.810;4.442;2022-10-16T15:25:56;21.20;99.90
23609;DHT22;11982;50.810;4.442;2022-10-16T15:28:23;21.00;99.90
23609;DHT22;11982;50.810;4.442;2022-10-16T15:30:51;20.70;99.90
23609;DHT22;11982;50.810;4.442;2022-10-16T15:33:23;20.70;99.90
23609;DHT22;11982;50.810;4.442;2022-10-16T15:35:50;20.60;99.90
23609;DHT22;11982;50.810;4.442;2022-10-16T15:38:17;20.50;99.90
23609;DHT22;11982;50.810;4.442;2022-10-16T15:40:44;20.30;99.90
23609;DHT22;11982;50.810;4.442;2022-10-16T15:43:09;20.30;99.90
23609;DHT22;11982;50.810;4.442;2022-10-16T15:45:35;20.30;99.90
23609;DHT22;11982;50.810;4.442;2022-10-16T15:48:01;20.10;99.90
23609;DHT22;11982;50.810;4.442;2022-10-16T15:50:28;19.90;99.90
23609;DHT22;11982;50.810;4.442;2022-10-16T15:52:53;19.90;99.90
23609;DHT22;11982;50.810;4.442;2022-10-16T15:55:19;19.80;99.90
23609;DHT22;11982;50.810;4.442;2022-10-16T15:57:45;19.80;99.90
23609;DHT22;11982;50.810;4.442;2022-10-16T16:00:16;19.60;99.90
23609;DHT22;11982;50.810;4.442;2022-10-16T16:02:43;19.50;99.90
23609;DHT22;11982;50.810;4.442;2022-10-16T16:05:10;19.50;99.90
23609;DHT22;11982;50.810;4.442;2022-10-16T16:07:37;19.40;99.90
23609;DHT22;11982;50.810;4.442;2022-10-16T16:10:05;19.40;99.90
23609;DHT22;11982;50.810;4.442;2022-10-16T16:12:32;19.40;99.90
23609;DHT22;11982;50.810;4.442;2022-10-16T16:14:57;19.50;99.90
23609;DHT22;11982;50.810;4.442;2022-10-16T16:17:23;19.20;99.90
23609;DHT22;11982;50.810;4.442;2022-10-16T16:19:50;19.20;99.90
23609;DHT22;11982;50.810;4.442;2022-10-16T16:22:16;19.00;99.90
23609;DHT22;11982;50.810;4.442;2022-10-16T16:24:42;18.90;99.90
23609;DHT22;11982;50.810;4.442;2022-10-16T16:27:08;18.70;99.90
23609;DHT22;11982;50.810;4.442;2022-10-16T16:29:33;18.70;99.90
23609;DHT22;11982;50.810;4.442;2022-10-16T16:32:01;18.50;99.90
23609;DHT22;11982;50.810;4.442;2022-10-16T16:34:27;18.50;99.90
23609;DHT22;11982;50.810;4.442;2022-10-16T16:36:54;18.50;99.90
23609;DHT22;11982;50.810;4.442;2022-10-16T16:39:20;18.10;99.90
23609;DHT22;11982;50.810;4.442;2022-10-16T16:41:45;17.90;99.90
23609;DHT22;11982;50.810;4.442;2022-10-16T16:44:14;17.60;99.90
23609;DHT22;11982;50.810;4.442;2022-10-16T16:46:40;17.50;99.90
23609;DHT22;11982;50.810;4.442;2022-10-16T16:49:10;17.50;99.90
23609;DHT22;11982;50.810;4.442;2022-10-16T16:51:36;17.70;99.90
23609;DHT22;11982;50.810;4.442;2022-10-16T16:54:02;17.60;99.90
23609;DHT22;11982;50.810;4.442;2022-10-16T16:56:28;17.70;99.90
23609;DHT22;11982;50.810;4.442;2022-10-16T16:58:55;17.80;99.90
23609;DHT22;11982;50.810;4.442;2022-10-16T17:01:22;17.70;99.90
23609;DHT22;11982;50.810;4.442;2022-10-16T17:03:51;17.20;99.90
23609;DHT22;11982;50.810;4.442;2022-10-16T17:06:18;16.80;99.90
23609;DHT22;11982;50.810;4.442;2022-10-16T17:08:44;16.50;99.90
23609;DHT22;11982;50.810;4.442;2022-10-16T17:11:15;16.60;99.90
23609;DHT22;11982;50.810;4.442;2022-10-16T17:13:41;16.70;99.90
23609;DHT22;11982;50.810;4.442;2022-10-16T17:16:07;16.70;99.90
23609;DHT22;11982;50.810;4.442;2022-10-16T17:18:33;16.70;99.90
23609;DHT22;11982;50.810;4.442;2022-10-16T17:21:00;16.60;99.90
23609;DHT22;11982;50.810;4.442;2022-10-16T17:23:26;16.80;99.90
23609;DHT22;11982;50.810;4.442;2022-10-16T17:25:53;16.70;99.90
23609;DHT22;11982;50.810;4.442;2022-10-16T17:28:18;16.70;99.90
23609;DHT22;11982;50.810;4.442;2022-10-16T17:30:44;16.60;99.90
23609;DHT22;11982;50.810;4.442;2022-10-16T17:33:11;16.70;99.90
23609;DHT22;11982;50.810;4.442;2022-10-16T17:35:43;16.60;99.90
23609;DHT22;11982;50.810;4.442;2022-10-16T17:38:10;16.50;99.90
23609;DHT22;11982;50.810;4.442;2022-10-16T17:40:36;16.30;99.90
23609;DHT22;11982;50.810;4.442;2022-10-16T17:43:02;16.30;99.90
23609;DHT22;11982;50.810;4.442;2022-10-16T17:45:28;16.40;99.90